TKJ25W LTAC-LTCP
Flight info
| Callsign | TKJ25W |
|---|---|
| Flight time | 0h 48m |
| Altitude | 35000 |
| Route | GOBIT UG8 GEM UW73 ERH/N0374F270 W103 SONSU |
| Aircraft | A320/M-SDE3FGHIRWY/LB1 |
Departure
| Time | 2026-04-29 11:36 |
|---|---|
| Airport | Esenboğa International Airport (LTAC) |
Arrival
| Time | 2026-04-29 12:24 |
|---|---|
| Airport | Adıyaman Airport (LTCP) |
| Time | Latitude | Longitude | Altitude | Speed | Heading |
|---|---|---|---|---|---|
| 2026-04-29 11:21 | 40.11900 | 32.99226 | 3113 ft | 0 kts | 341° |
| 2026-04-29 11:26 | 40.11899 | 32.99227 | 3113 ft | 2 kts | 341° |
| 2026-04-29 11:26 | 40.11874 | 32.99237 | 3113 ft | 4 kts | 343° |
| 2026-04-29 11:27 | 40.11853 | 32.99246 | 3113 ft | 4 kts | 338° |
| 2026-04-29 11:27 | 40.11833 | 32.99263 | 3113 ft | 4 kts | 296° |
| 2026-04-29 11:27 | 40.11829 | 32.99294 | 3113 ft | 3 kts | 255° |
| 2026-04-29 11:27 | 40.11830 | 32.99298 | 3113 ft | 0 kts | 254° |
| 2026-04-29 11:31 | 40.11827 | 32.99282 | 3113 ft | 8 kts | 254° |
| 2026-04-29 11:32 | 40.11800 | 32.99190 | 3113 ft | 11 kts | 244° |
| 2026-04-29 11:32 | 40.11780 | 32.99089 | 3113 ft | 10 kts | 295° |
| 2026-04-29 11:32 | 40.11804 | 32.99023 | 3113 ft | 7 kts | 247° |
| 2026-04-29 11:32 | 40.11764 | 32.98963 | 3113 ft | 10 kts | 218° |
| 2026-04-29 11:33 | 40.11698 | 32.98903 | 3113 ft | 12 kts | 220° |
| 2026-04-29 11:33 | 40.11708 | 32.98800 | 3112 ft | 13 kts | 307° |
| 2026-04-29 11:33 | 40.11755 | 32.98715 | 3113 ft | 13 kts | 306° |
| 2026-04-29 11:33 | 40.11808 | 32.98620 | 3113 ft | 13 kts | 306° |
| 2026-04-29 11:34 | 40.11853 | 32.98541 | 3113 ft | 12 kts | 306° |
| 2026-04-29 11:34 | 40.11925 | 32.98509 | 3113 ft | 13 kts | 21° |
| 2026-04-29 11:34 | 40.11972 | 32.98550 | 3113 ft | 0 kts | 37° |
| 2026-04-29 11:35 | 40.12080 | 32.98654 | 3115 ft | 60 kts | 35° |
| 2026-04-29 11:35 | 40.12667 | 32.99214 | 3121 ft | 143 kts | 37° |
| 2026-04-29 11:36 | 40.13628 | 33.00130 | 3361 ft | 188 kts | 30° |
| 2026-04-29 11:36 | 40.14711 | 33.01198 | 4153 ft | 204 kts | 36° |
| 2026-04-29 11:36 | 40.15861 | 33.02414 | 4823 ft | 216 kts | 37° |
| 2026-04-29 11:36 | 40.17034 | 33.03673 | 5458 ft | 219 kts | 36° |
| 2026-04-29 11:37 | 40.18228 | 33.04948 | 6129 ft | 223 kts | 36° |
| 2026-04-29 11:37 | 40.19452 | 33.06243 | 6791 ft | 228 kts | 36° |
| 2026-04-29 11:37 | 40.20632 | 33.07644 | 7422 ft | 234 kts | 52° |
| 2026-04-29 11:37 | 40.21108 | 33.09670 | 8073 ft | 240 kts | 93° |
| 2026-04-29 11:38 | 40.20532 | 33.11683 | 8746 ft | 239 kts | 126° |
| 2026-04-29 11:38 | 40.19539 | 33.13433 | 9427 ft | 241 kts | 130° |
| 2026-04-29 11:38 | 40.18462 | 33.15151 | 10082 ft | 248 kts | 131° |
| 2026-04-29 11:38 | 40.17336 | 33.16916 | 10708 ft | 257 kts | 132° |
| 2026-04-29 11:39 | 40.16189 | 33.18733 | 11338 ft | 267 kts | 131° |
| 2026-04-29 11:39 | 40.14969 | 33.20689 | 11755 ft | 289 kts | 130° |
| 2026-04-29 11:39 | 40.13636 | 33.22848 | 12063 ft | 313 kts | 130° |
| 2026-04-29 11:39 | 40.12245 | 33.25125 | 12314 ft | 337 kts | 129° |
| 2026-04-29 11:40 | 40.10741 | 33.27604 | 12552 ft | 359 kts | 129° |
| 2026-04-29 11:40 | 40.09167 | 33.30218 | 13059 ft | 370 kts | 129° |
| 2026-04-29 11:40 | 40.07567 | 33.32877 | 13761 ft | 375 kts | 129° |
| 2026-04-29 11:40 | 40.05938 | 33.35581 | 14349 ft | 381 kts | 129° |
| 2026-04-29 11:41 | 40.04290 | 33.38312 | 14997 ft | 386 kts | 130° |
| 2026-04-29 11:41 | 40.02610 | 33.41082 | 15620 ft | 391 kts | 129° |
| 2026-04-29 11:41 | 40.00932 | 33.43891 | 16240 ft | 394 kts | 128° |
| 2026-04-29 11:41 | 39.99320 | 33.46815 | 16842 ft | 399 kts | 126° |
| 2026-04-29 11:42 | 39.97759 | 33.49828 | 17461 ft | 404 kts | 124° |
| 2026-04-29 11:42 | 39.96209 | 33.52912 | 18061 ft | 408 kts | 124° |
| 2026-04-29 11:42 | 39.94648 | 33.56028 | 18645 ft | 413 kts | 124° |
| 2026-04-29 11:42 | 39.93061 | 33.59160 | 19205 ft | 416 kts | 124° |
| 2026-04-29 11:43 | 39.91446 | 33.62307 | 19746 ft | 420 kts | 124° |
| 2026-04-29 11:43 | 39.89798 | 33.65479 | 20318 ft | 424 kts | 125° |
| 2026-04-29 11:43 | 39.88127 | 33.68668 | 20865 ft | 428 kts | 125° |
| 2026-04-29 11:43 | 39.86442 | 33.71874 | 21395 ft | 431 kts | 125° |
| 2026-04-29 11:44 | 39.84739 | 33.75104 | 21909 ft | 435 kts | 125° |
| 2026-04-29 11:44 | 39.83020 | 33.78369 | 22410 ft | 438 kts | 126° |
| 2026-04-29 11:44 | 39.81296 | 33.81659 | 22907 ft | 441 kts | 125° |
| 2026-04-29 11:44 | 39.79563 | 33.84971 | 23373 ft | 445 kts | 126° |
| 2026-04-29 11:45 | 39.77899 | 33.88405 | 23833 ft | 449 kts | 119° |
| 2026-04-29 11:45 | 39.76634 | 33.92087 | 24197 ft | 453 kts | 110° |
| 2026-04-29 11:45 | 39.75552 | 33.95940 | 24599 ft | 456 kts | 110° |
| 2026-04-29 11:45 | 39.74460 | 33.99828 | 25005 ft | 459 kts | 110° |
| 2026-04-29 11:46 | 39.73359 | 34.03736 | 25400 ft | 462 kts | 110° |
| 2026-04-29 11:46 | 39.72243 | 34.07685 | 25794 ft | 465 kts | 110° |
| 2026-04-29 11:46 | 39.71118 | 34.11650 | 26196 ft | 469 kts | 110° |
| 2026-04-29 11:46 | 39.69986 | 34.15629 | 26582 ft | 471 kts | 110° |
| 2026-04-29 11:47 | 39.68843 | 34.19632 | 26969 ft | 475 kts | 110° |
| 2026-04-29 11:47 | 39.67691 | 34.23664 | 27368 ft | 478 kts | 110° |
| 2026-04-29 11:47 | 39.66532 | 34.27715 | 27753 ft | 481 kts | 110° |
| 2026-04-29 11:47 | 39.65364 | 34.31801 | 28131 ft | 484 kts | 110° |
| 2026-04-29 11:48 | 39.64189 | 34.35911 | 28510 ft | 487 kts | 110° |
| 2026-04-29 11:48 | 39.63001 | 34.40047 | 28877 ft | 490 kts | 110° |
| 2026-04-29 11:48 | 39.61803 | 34.44207 | 29227 ft | 493 kts | 110° |
| 2026-04-29 11:48 | 39.60600 | 34.48381 | 29596 ft | 497 kts | 110° |
| 2026-04-29 11:49 | 39.59387 | 34.52587 | 29966 ft | 500 kts | 110° |
| 2026-04-29 11:49 | 39.58161 | 34.56823 | 30345 ft | 501 kts | 110° |
| 2026-04-29 11:49 | 39.56938 | 34.61035 | 30823 ft | 499 kts | 110° |
| 2026-04-29 11:49 | 39.55717 | 34.65241 | 31335 ft | 498 kts | 110° |
| 2026-04-29 11:50 | 39.54498 | 34.69432 | 31818 ft | 497 kts | 110° |
| 2026-04-29 11:50 | 39.53280 | 34.73617 | 32302 ft | 496 kts | 110° |
| 2026-04-29 11:50 | 39.52062 | 34.77798 | 32785 ft | 495 kts | 110° |
| 2026-04-29 11:50 | 39.50850 | 34.81953 | 33268 ft | 494 kts | 110° |
| 2026-04-29 11:51 | 39.49635 | 34.86109 | 33751 ft | 493 kts | 110° |
| 2026-04-29 11:51 | 39.48432 | 34.90216 | 34219 ft | 492 kts | 110° |
| 2026-04-29 11:51 | 39.47218 | 34.94355 | 34664 ft | 491 kts | 110° |
| 2026-04-29 11:51 | 39.46006 | 34.98481 | 34941 ft | 490 kts | 110° |
| 2026-04-29 11:52 | 39.43553 | 35.06801 | 35014 ft | 501 kts | 110° |
| 2026-04-29 11:52 | 39.41051 | 35.15250 | 35016 ft | 504 kts | 111° |
| 2026-04-29 11:53 | 39.38562 | 35.23715 | 35019 ft | 504 kts | 110° |
| 2026-04-29 11:53 | 39.36119 | 35.32205 | 35027 ft | 504 kts | 110° |
| 2026-04-29 11:54 | 39.33678 | 35.40687 | 35028 ft | 504 kts | 110° |
| 2026-04-29 11:54 | 39.31219 | 35.49158 | 35031 ft | 503 kts | 110° |
| 2026-04-29 11:55 | 39.28748 | 35.57605 | 35033 ft | 503 kts | 110° |
| 2026-04-29 11:55 | 39.26264 | 35.66051 | 35034 ft | 503 kts | 110° |
| 2026-04-29 11:56 | 39.23771 | 35.74504 | 35038 ft | 503 kts | 110° |
| 2026-04-29 11:56 | 39.21288 | 35.82939 | 35036 ft | 503 kts | 110° |
| 2026-04-29 11:57 | 39.18808 | 35.91326 | 35034 ft | 503 kts | 111° |
| 2026-04-29 11:57 | 39.16308 | 35.99739 | 35043 ft | 503 kts | 111° |
| 2026-04-29 11:58 | 39.13764 | 36.08133 | 35040 ft | 503 kts | 112° |
| 2026-04-29 11:58 | 39.11074 | 36.16443 | 35039 ft | 503 kts | 113° |
| 2026-04-29 11:59 | 39.08334 | 36.24736 | 35036 ft | 503 kts | 113° |
| 2026-04-29 11:59 | 39.05645 | 36.33033 | 35034 ft | 503 kts | 112° |
| 2026-04-29 12:00 | 39.02970 | 36.41342 | 35031 ft | 503 kts | 112° |
| 2026-04-29 12:00 | 39.00280 | 36.49639 | 35035 ft | 502 kts | 112° |
| 2026-04-29 12:01 | 38.97583 | 36.57912 | 35038 ft | 501 kts | 113° |
| 2026-04-29 12:01 | 38.94924 | 36.66044 | 34646 ft | 489 kts | 112° |
| 2026-04-29 12:02 | 38.93608 | 36.70058 | 34261 ft | 487 kts | 112° |
| 2026-04-29 12:02 | 38.92290 | 36.74067 | 33857 ft | 487 kts | 112° |
| 2026-04-29 12:02 | 38.91403 | 36.76767 | 33564 ft | 487 kts | 112° |
| 2026-04-29 12:02 | 38.90086 | 36.80772 | 33121 ft | 487 kts | 112° |
| 2026-04-29 12:03 | 38.88767 | 36.84772 | 32691 ft | 487 kts | 112° |
| 2026-04-29 12:03 | 38.87444 | 36.88780 | 32262 ft | 488 kts | 112° |
| 2026-04-29 12:03 | 38.86121 | 36.92791 | 31848 ft | 488 kts | 112° |
| 2026-04-29 12:03 | 38.84797 | 36.96806 | 31435 ft | 488 kts | 112° |
| 2026-04-29 12:04 | 38.83491 | 37.00756 | 31033 ft | 487 kts | 112° |
| 2026-04-29 12:04 | 38.82164 | 37.04751 | 30641 ft | 487 kts | 112° |
| 2026-04-29 12:04 | 38.80815 | 37.08799 | 30234 ft | 487 kts | 112° |
| 2026-04-29 12:04 | 38.79499 | 37.12742 | 29808 ft | 487 kts | 112° |
| 2026-04-29 12:05 | 38.78166 | 37.16740 | 29354 ft | 488 kts | 112° |
| 2026-04-29 12:05 | 38.76838 | 37.20723 | 28893 ft | 486 kts | 112° |
| 2026-04-29 12:05 | 38.75519 | 37.24689 | 28472 ft | 482 kts | 112° |
| 2026-04-29 12:05 | 38.74210 | 37.28623 | 28029 ft | 478 kts | 112° |
| 2026-04-29 12:06 | 38.72910 | 37.32527 | 27610 ft | 475 kts | 113° |
| 2026-04-29 12:06 | 38.71613 | 37.36415 | 27184 ft | 472 kts | 112° |
| 2026-04-29 12:06 | 38.70326 | 37.40262 | 26768 ft | 468 kts | 113° |
| 2026-04-29 12:06 | 38.69047 | 37.44073 | 26360 ft | 465 kts | 113° |
| 2026-04-29 12:07 | 38.67770 | 37.47867 | 25949 ft | 462 kts | 113° |
| 2026-04-29 12:07 | 38.66500 | 37.51640 | 25553 ft | 459 kts | 113° |
| 2026-04-29 12:07 | 38.65243 | 37.55372 | 25162 ft | 456 kts | 113° |
| 2026-04-29 12:07 | 38.63992 | 37.59082 | 24775 ft | 453 kts | 113° |
| 2026-04-29 12:08 | 38.62751 | 37.62763 | 24395 ft | 450 kts | 113° |
| 2026-04-29 12:08 | 38.61517 | 37.66424 | 24021 ft | 447 kts | 113° |
| 2026-04-29 12:08 | 38.60286 | 37.70071 | 23643 ft | 444 kts | 113° |
| 2026-04-29 12:08 | 38.59063 | 37.73686 | 23218 ft | 442 kts | 113° |
| 2026-04-29 12:09 | 38.57845 | 37.77278 | 22784 ft | 440 kts | 113° |
| 2026-04-29 12:09 | 38.56634 | 37.80850 | 22348 ft | 437 kts | 113° |
| 2026-04-29 12:09 | 38.55429 | 37.84387 | 21921 ft | 433 kts | 113° |
| 2026-04-29 12:09 | 38.54228 | 37.87902 | 21500 ft | 431 kts | 113° |
| 2026-04-29 12:10 | 38.53032 | 37.91404 | 21080 ft | 428 kts | 113° |
| 2026-04-29 12:10 | 38.51844 | 37.94880 | 20679 ft | 425 kts | 113° |
| 2026-04-29 12:10 | 38.50662 | 37.98331 | 20272 ft | 423 kts | 113° |
| 2026-04-29 12:10 | 38.49487 | 38.01760 | 19880 ft | 419 kts | 113° |
| 2026-04-29 12:11 | 38.48234 | 38.05101 | 19489 ft | 416 kts | 120° |
| 2026-04-29 12:11 | 38.46587 | 38.08115 | 19105 ft | 413 kts | 130° |
| 2026-04-29 12:11 | 38.44563 | 38.10703 | 18726 ft | 411 kts | 141° |
| 2026-04-29 12:11 | 38.42236 | 38.12790 | 18351 ft | 408 kts | 151° |
| 2026-04-29 12:12 | 38.39689 | 38.14329 | 17936 ft | 405 kts | 161° |
| 2026-04-29 12:12 | 38.37045 | 38.15576 | 17508 ft | 403 kts | 161° |
| 2026-04-29 12:12 | 38.34407 | 38.16820 | 17086 ft | 404 kts | 161° |
| 2026-04-29 12:12 | 38.31778 | 38.18063 | 16672 ft | 402 kts | 161° |
| 2026-04-29 12:13 | 38.29169 | 38.19300 | 16261 ft | 399 kts | 161° |
| 2026-04-29 12:13 | 38.26610 | 38.20512 | 15864 ft | 396 kts | 161° |
| 2026-04-29 12:13 | 38.24047 | 38.21721 | 15453 ft | 390 kts | 161° |
| 2026-04-29 12:13 | 38.21513 | 38.22917 | 15070 ft | 387 kts | 161° |
| 2026-04-29 12:14 | 38.18982 | 38.24112 | 14685 ft | 387 kts | 161° |
| 2026-04-29 12:14 | 38.16480 | 38.25290 | 14297 ft | 381 kts | 161° |
| 2026-04-29 12:14 | 38.14004 | 38.26453 | 13926 ft | 379 kts | 161° |
| 2026-04-29 12:14 | 38.11541 | 38.27605 | 13515 ft | 375 kts | 161° |
| 2026-04-29 12:15 | 38.09100 | 38.28748 | 13088 ft | 373 kts | 161° |
| 2026-04-29 12:15 | 38.06675 | 38.29885 | 12681 ft | 371 kts | 161° |
| 2026-04-29 12:15 | 38.04257 | 38.31022 | 12350 ft | 370 kts | 161° |
| 2026-04-29 12:15 | 38.01854 | 38.32151 | 11994 ft | 367 kts | 161° |
| 2026-04-29 12:16 | 37.99464 | 38.33273 | 11634 ft | 365 kts | 161° |
| 2026-04-29 12:16 | 37.97093 | 38.34381 | 11293 ft | 363 kts | 161° |
| 2026-04-29 12:16 | 37.94729 | 38.35485 | 10937 ft | 359 kts | 161° |
| 2026-04-29 12:16 | 37.92419 | 38.36565 | 10587 ft | 350 kts | 160° |
| 2026-04-29 12:17 | 37.90111 | 38.37397 | 10240 ft | 340 kts | 173° |
| 2026-04-29 12:17 | 37.87784 | 38.37449 | 9915 ft | 330 kts | 189° |
| 2026-04-29 12:17 | 37.85588 | 38.36738 | 9543 ft | 322 kts | 204° |
| 2026-04-29 12:17 | 37.83636 | 38.35430 | 9184 ft | 314 kts | 212° |
| 2026-04-29 12:18 | 37.81769 | 38.34029 | 8822 ft | 310 kts | 213° |
| 2026-04-29 12:18 | 37.79925 | 38.32650 | 8457 ft | 307 kts | 212° |
| 2026-04-29 12:18 | 37.78095 | 38.31286 | 8103 ft | 304 kts | 212° |
| 2026-04-29 12:18 | 37.76279 | 38.29935 | 7765 ft | 301 kts | 212° |
| 2026-04-29 12:19 | 37.74478 | 38.28592 | 7409 ft | 298 kts | 212° |
| 2026-04-29 12:19 | 37.72704 | 38.27268 | 7062 ft | 291 kts | 212° |
| 2026-04-29 12:19 | 37.70997 | 38.26019 | 6725 ft | 277 kts | 208° |
| 2026-04-29 12:19 | 37.69173 | 38.25430 | 6383 ft | 269 kts | 182° |
| 2026-04-29 12:20 | 37.67380 | 38.25897 | 6037 ft | 263 kts | 156° |
| 2026-04-29 12:20 | 37.65925 | 38.27200 | 5691 ft | 257 kts | 141° |
| 2026-04-29 12:20 | 37.64585 | 38.28672 | 5349 ft | 249 kts | 137° |
| 2026-04-29 12:20 | 37.63666 | 38.30474 | 4988 ft | 248 kts | 105° |
| 2026-04-29 12:21 | 37.63683 | 38.32576 | 4797 ft | 243 kts | 71° |
| 2026-04-29 12:21 | 37.64548 | 38.34388 | 4513 ft | 235 kts | 48° |
| 2026-04-29 12:21 | 37.65597 | 38.35897 | 4233 ft | 223 kts | 46° |
| 2026-04-29 12:21 | 37.66588 | 38.37321 | 3958 ft | 213 kts | 47° |
| 2026-04-29 12:22 | 37.67526 | 38.38687 | 3692 ft | 199 kts | 46° |
| 2026-04-29 12:22 | 37.68416 | 38.39990 | 3425 ft | 186 kts | 47° |
| 2026-04-29 12:22 | 37.69225 | 38.41174 | 3203 ft | 176 kts | 47° |
| 2026-04-29 12:22 | 37.69988 | 38.42296 | 2992 ft | 160 kts | 47° |
| 2026-04-29 12:23 | 37.70680 | 38.43333 | 2746 ft | 153 kts | 47° |
| 2026-04-29 12:23 | 37.71384 | 38.44356 | 2535 ft | 155 kts | 47° |
| 2026-04-29 12:23 | 37.72100 | 38.45388 | 2337 ft | 157 kts | 47° |
| 2026-04-29 12:23 | 37.72798 | 38.46399 | 2215 ft | 138 kts | 49° |
| 2026-04-29 12:24 | 37.73236 | 38.47042 | 2214 ft | 53 kts | 50° |
| 2026-04-29 12:24 | 37.73371 | 38.47241 | 2214 ft | 21 kts | 49° |
| 2026-04-29 12:24 | 37.73448 | 38.47273 | 2216 ft | 9 kts | 319° |
| 2026-04-29 12:24 | 37.73490 | 38.47226 | 2216 ft | 8 kts | 319° |
| 2026-04-29 12:25 | 37.73531 | 38.47180 | 2215 ft | 9 kts | 319° |
| 2026-04-29 12:25 | 37.73581 | 38.47136 | 2216 ft | 7 kts | 322° |
| 2026-04-29 12:25 | 37.73598 | 38.47078 | 2213 ft | 3 kts | 212° |
| 2026-04-29 12:26 | 37.73593 | 38.47075 | 2214 ft | 0 kts | 208° |